Time;durP1;ratioP1;P1;durP2;ratioP2;P2;SDS_P1;SDS_P2;PMS_P1;PMS_P2;Temp;Humidity;BMP_temperature;BMP_pressure;BME280_temperature;BME280_humidity;BME280_pressure;Samples;Min_cycle;Max_cycle;Signal;HPM_P1;HPM_P2
2023/06/19 00:01:51;;;;;;;;;;;17.80;82.00;;;;;;5011945;28;88796;-48
2023/06/19 00:04:17;;;;;;;;;;;17.80;82.00;;;;;;5012585;28;88303;-52
2023/06/19 00:06:42;;;;;;;;;;;17.80;82.00;;;;;;5011834;28;87321;-48
2023/06/19 00:09:08;;;;;;;;;;;17.70;82.00;;;;;;5013801;28;88197;-48
2023/06/19 00:11:34;;;;;;;;;;;17.80;82.00;;;;;;5011747;28;89601;-51
2023/06/19 00:14:00;;;;;;;;;;;17.80;81.90;;;;;;5011644;28;87190;-51
2023/06/19 00:16:26;;;;;;;;;;;17.70;81.90;;;;;;5012614;28;87109;-47
2023/06/19 00:18:55;;;;;;;;;;;17.80;81.90;;;;;;5015738;28;88008;-51
2023/06/19 00:21:27;;;;;;;;;;;17.80;82.00;;;;;;5013416;28;88023;-48
2023/06/19 00:23:53;;;;;;;;;;;17.70;81.80;;;;;;5008672;28;89363;-50
2023/06/19 00:26:22;;;;;;;;;;;17.80;81.80;;;;;;5011558;28;86492;-49
2023/06/19 00:28:53;;;;;;;;;;;17.80;81.90;;;;;;5013697;28;88056;-49
2023/06/19 00:31:19;;;;;;;;;;;17.80;81.80;;;;;;5010454;28;87544;-50
2023/06/19 00:33:47;;;;;;;;;;;17.70;81.80;;;;;;5010332;28;88136;-48
2023/06/19 00:36:13;;;;;;;;;;;17.80;81.80;;;;;;5012775;28;88927;-50
2023/06/19 00:38:39;;;;;;;;;;;17.80;81.80;;;;;;5012591;28;87501;-50
2023/06/19 00:41:05;;;;;;;;;;;17.80;81.80;;;;;;5013001;28;87119;-49
2023/06/19 00:43:31;;;;;;;;;;;17.70;81.80;;;;;;5012198;28;87998;-48
2023/06/19 00:46:00;;;;;;;;;;;17.80;81.90;;;;;;5009156;28;87072;-49
2023/06/19 00:48:29;;;;;;;;;;;17.70;81.80;;;;;;5013373;28;89039;-47
2023/06/19 00:50:56;;;;;;;;;;;17.70;81.80;;;;;;5012810;28;87289;-48
2023/06/19 00:53:22;;;;;;;;;;;17.80;81.90;;;;;;5011265;28;87095;-46
2023/06/19 00:55:47;;;;;;;;;;;17.70;81.80;;;;;;5013215;28;88132;-48
2023/06/19 00:58:13;;;;;;;;;;;17.70;81.90;;;;;;5011699;28;88670;-51
2023/06/19 01:00:38;;;;;;;;;;;17.70;81.90;;;;;;5013699;28;87010;-48
2023/06/19 01:03:04;;;;;;;;;;;17.70;81.80;;;;;;5010260;28;88113;-47
2023/06/19 01:05:29;;;;;;;;;;;17.70;81.90;;;;;;5011957;28;87158;-50
2023/06/19 01:08:01;;;;;;;;;;;17.70;81.90;;;;;;5013677;28;87330;-50
2023/06/19 01:10:28;;;;;;;;;;;17.70;81.80;;;;;;5007208;28;89479;-49
2023/06/19 01:13:00;;;;;;;;;;;17.70;82.00;;;;;;5010156;28;87062;-47
2023/06/19 01:15:26;;;;;;;;;;;17.70;82.00;;;;;;5007173;28;87455;-50
2023/06/19 01:17:53;;;;;;;;;;;17.70;81.90;;;;;;5009307;28;88291;-49
2023/06/19 01:20:18;;;;;;;;;;;17.70;81.80;;;;;;5012292;28;87206;-49
2023/06/19 01:22:44;;;;;;;;;;;17.70;81.80;;;;;;5012024;28;88034;-49
2023/06/19 01:25:10;;;;;;;;;;;17.70;81.90;;;;;;5010476;28;87089;-49
2023/06/19 01:27:37;;;;;;;;;;;17.70;81.80;;;;;;5011980;28;88835;-47
2023/06/19 01:30:03;;;;;;;;;;;17.70;81.80;;;;;;5009392;28;89770;-54
2023/06/19 01:32:29;;;;;;;;;;;17.70;81.70;;;;;;5009328;28;87170;-48
2023/06/19 01:34:56;;;;;;;;;;;17.60;81.80;;;;;;5008126;28;90766;-51
2023/06/19 01:37:21;;;;;;;;;;;17.70;81.80;;;;;;5012626;28;88095;-53
2023/06/19 01:39:47;;;;;;;;;;;17.60;81.80;;;;;;5018115;28;86584;-53
2023/06/19 01:42:13;;;;;;;;;;;17.70;81.70;;;;;;5014374;28;87061;-51
2023/06/19 01:44:39;;;;;;;;;;;17.70;81.60;;;;;;5021827;28;88579;-51
2023/06/19 01:47:09;;;;;;;;;;;17.60;82.30;;;;;;5016387;28;88121;-51
2023/06/19 01:49:34;;;;;;;;;;;17.60;81.60;;;;;;5019625;28;87276;-51
2023/06/19 01:52:00;;;;;;;;;;;17.60;81.80;;;;;;5017789;28;87186;-51
2023/06/19 01:54:26;;;;;;;;;;;17.60;81.60;;;;;;5020854;28;89143;-49
2023/06/19 01:56:52;;;;;;;;;;;17.60;81.60;;;;;;5016711;28;88121;-53
2023/06/19 01:59:17;;;;;;;;;;;17.60;81.60;;;;;;5018845;28;87160;-54
2023/06/19 02:01:43;;;;;;;;;;;17.60;81.40;;;;;;5017901;28;89062;-53
2023/06/19 02:04:08;;;;;;;;;;;17.60;81.40;;;;;;5017253;28;87257;-51
2023/06/19 02:06:34;;;;;;;;;;;17.60;81.40;;;;;;5021999;28;87215;-51
2023/06/19 02:08:59;;;;;;;;;;;17.60;81.70;;;;;;5018445;28;88101;-49
2023/06/19 02:11:25;;;;;;;;;;;17.50;81.50;;;;;;5016248;28;88028;-49
2023/06/19 02:13:50;;;;;;;;;;;17.50;81.40;;;;;;5018732;28;89868;-49
2023/06/19 02:16:16;;;;;;;;;;;17.50;81.50;;;;;;5017624;28;89256;-47
2023/06/19 02:18:41;;;;;;;;;;;17.50;81.50;;;;;;5013755;28;87118;-49
2023/06/19 02:21:07;;;;;;;;;;;17.50;81.50;;;;;;5013223;28;87398;-47
2023/06/19 02:23:33;;;;;;;;;;;17.50;81.50;;;;;;5017523;28;89445;-51
2023/06/19 02:25:58;;;;;;;;;;;17.50;81.60;;;;;;5019335;28;87125;-50
2023/06/19 02:28:24;;;;;;;;;;;17.50;81.60;;;;;;5019322;28;88992;-52
2023/06/19 02:30:49;;;;;;;;;;;17.50;81.50;;;;;;5017894;28;87157;-52
2023/06/19 02:33:15;;;;;;;;;;;17.50;81.60;;;;;;5017749;28;87711;-49
2023/06/19 02:35:41;;;;;;;;;;;17.50;81.70;;;;;;5015497;28;88986;-47
2023/06/19 02:38:07;;;;;;;;;;;17.50;81.70;;;;;;5018047;28;87506;-48
2023/06/19 02:40:32;;;;;;;;;;;17.50;81.70;;;;;;5018403;28;87447;-51
2023/06/19 02:42:58;;;;;;;;;;;17.50;81.60;;;;;;5016258;28;88177;-48
2023/06/19 02:45:23;;;;;;;;;;;17.50;81.70;;;;;;5018366;28;87157;-49
2023/06/19 02:47:50;;;;;;;;;;;17.40;81.60;;;;;;5017201;28;87479;-51
2023/06/19 02:50:16;;;;;;;;;;;17.50;81.60;;;;;;5015288;28;87218;-47
2023/06/19 02:52:41;;;;;;;;;;;17.50;81.60;;;;;;5014403;28;86380;-48
2023/06/19 02:55:07;;;;;;;;;;;17.50;81.60;;;;;;5013437;28;89529;-51
2023/06/19 02:57:33;;;;;;;;;;;17.50;81.50;;;;;;5015841;28;88136;-49
2023/06/19 02:59:58;;;;;;;;;;;17.40;81.50;;;;;;5012823;28;88932;-47
2023/06/19 03:02:24;;;;;;;;;;;17.40;81.60;;;;;;5012125;28;88142;-49
2023/06/19 03:04:50;;;;;;;;;;;17.40;81.60;;;;;;5012798;28;87105;-52
2023/06/19 03:07:16;;;;;;;;;;;17.40;81.50;;;;;;5014991;28;89036;-50
2023/06/19 03:09:42;;;;;;;;;;;17.40;81.60;;;;;;5016929;28;89083;-51
2023/06/19 03:12:08;;;;;;;;;;;17.40;81.50;;;;;;5012745;28;87558;-47
2023/06/19 03:14:33;;;;;;;;;;;17.40;81.50;;;;;;5014641;28;90267;-46
2023/06/19 03:16:59;;;;;;;;;;;17.40;81.60;;;;;;5012171;28;86356;-49
2023/06/19 03:19:25;;;;;;;;;;;17.40;81.60;;;;;;5015402;28;87248;-48
2023/06/19 03:21:50;;;;;;;;;;;17.40;81.60;;;;;;5008916;28;88070;-48
2023/06/19 03:24:16;;;;;;;;;;;17.40;81.60;;;;;;5013285;28;88004;-52
2023/06/19 03:26:41;;;;;;;;;;;17.40;81.60;;;;;;5015275;28;88440;-48
2023/06/19 03:29:07;;;;;;;;;;;17.40;81.50;;;;;;5011760;28;87960;-46
2023/06/19 03:31:32;;;;;;;;;;;17.40;81.50;;;;;;5017232;28;87112;-49
2023/06/19 03:33:58;;;;;;;;;;;17.40;81.40;;;;;;5011595;28;88250;-46
2023/06/19 03:36:23;;;;;;;;;;;17.40;81.40;;;;;;5015124;28;87166;-49
2023/06/19 03:38:49;;;;;;;;;;;17.40;81.40;;;;;;5013272;28;86963;-47
2023/06/19 03:41:14;;;;;;;;;;;17.40;81.40;;;;;;5013046;28;87121;-46
2023/06/19 03:43:40;;;;;;;;;;;17.40;81.40;;;;;;5014734;28;87149;-51
2023/06/19 03:46:05;;;;;;;;;;;17.40;81.50;;;;;;5012851;28;87471;-48
2023/06/19 03:48:31;;;;;;;;;;;17.40;81.40;;;;;;5012416;28;89117;-48
2023/06/19 03:50:56;;;;;;;;;;;17.40;81.40;;;;;;5011857;28;87119;-49
2023/06/19 03:53:22;;;;;;;;;;;17.40;81.30;;;;;;5016816;28;88612;-49
2023/06/19 03:55:47;;;;;;;;;;;17.30;81.30;;;;;;5013819;28;87513;-49
2023/06/19 03:58:13;;;;;;;;;;;17.40;81.30;;;;;;5012033;28;87772;-48
2023/06/19 04:00:38;;;;;;;;;;;17.40;81.30;;;;;;5013157;28;88136;-48
2023/06/19 04:03:04;;;;;;;;;;;17.40;81.30;;;;;;5011851;28;87151;-46
2023/06/19 04:05:30;;;;;;;;;;;17.40;81.20;;;;;;5011388;28;87469;-48
2023/06/19 04:07:55;;;;;;;;;;;17.30;81.20;;;;;;5014328;28;87924;-50
2023/06/19 04:10:20;;;;;;;;;;;17.30;81.20;;;;;;5012963;28;87564;-48
2023/06/19 04:12:47;;;;;;;;;;;17.40;81.20;;;;;;5011736;28;88021;-46
2023/06/19 04:15:13;;;;;;;;;;;17.30;81.20;;;;;;5016879;28;89393;-49
2023/06/19 04:17:38;;;;;;;;;;;17.30;81.20;;;;;;5010021;28;87466;-49
2023/06/19 04:20:10;;;;;;;;;;;17.30;81.20;;;;;;5013802;28;88042;-48
2023/06/19 04:22:37;;;;;;;;;;;17.40;81.20;;;;;;5008864;28;87151;-47
2023/06/19 04:25:03;;;;;;;;;;;17.40;81.20;;;;;;5012126;28;88849;-46
2023/06/19 04:27:29;;;;;;;;;;;17.40;81.10;;;;;;5012309;28;91146;-49
2023/06/19 04:29:54;;;;;;;;;;;17.40;81.10;;;;;;5012614;28;86396;-51
2023/06/19 04:32:20;;;;;;;;;;;17.40;81.20;;;;;;5012679;28;87228;-49
2023/06/19 04:34:45;;;;;;;;;;;17.30;81.10;;;;;;5009416;28;88000;-48
2023/06/19 04:37:11;;;;;;;;;;;17.30;81.00;;;;;;5013934;28;88082;-47
2023/06/19 04:39:37;;;;;;;;;;;17.40;81.00;;;;;;5012124;28;88291;-48
2023/06/19 04:42:02;;;;;;;;;;;17.30;81.00;;;;;;5013927;28;87059;-49
2023/06/19 04:44:29;;;;;;;;;;;17.30;80.90;;;;;;5011368;28;87503;-50
2023/06/19 04:47:00;;;;;;;;;;;17.40;81.00;;;;;;5011957;28;89205;-51
2023/06/19 04:49:29;;;;;;;;;;;17.40;81.00;;;;;;5013662;28;87136;-50
2023/06/19 04:51:55;;;;;;;;;;;17.40;81.00;;;;;;5012055;28;88711;-48
2023/06/19 04:54:21;;;;;;;;;;;17.30;80.90;;;;;;5011602;28;87383;-51
2023/06/19 04:56:46;;;;;;;;;;;17.40;81.00;;;;;;5016464;28;87176;-51
2023/06/19 04:59:11;;;;;;;;;;;17.40;81.00;;;;;;5011890;28;88186;-48
2023/06/19 05:01:40;;;;;;;;;;;17.40;81.10;;;;;;5011052;28;88131;-50
2023/06/19 05:04:05;;;;;;;;;;;17.40;81.00;;;;;;5010582;28;90408;-50
2023/06/19 05:06:31;;;;;;;;;;;17.30;80.90;;;;;;5012332;28;88031;-51
2023/06/19 05:08:56;;;;;;;;;;;17.40;81.00;;;;;;5013107;28;87179;-49
2023/06/19 05:11:22;;;;;;;;;;;17.40;81.10;;;;;;5010722;28;88949;-49
2023/06/19 05:13:48;;;;;;;;;;;17.30;81.10;;;;;;5011816;28;88171;-50
2023/06/19 05:16:16;;;;;;;;;;;17.30;81.10;;;;;;5012922;28;87237;-52
2023/06/19 05:18:42;;;;;;;;;;;17.40;81.10;;;;;;5013215;28;87391;-50
2023/06/19 05:21:08;;;;;;;;;;;17.40;81.10;;;;;;5012035;28;87153;-51
2023/06/19 05:23:35;;;;;;;;;;;17.40;81.20;;;;;;5011168;28;87192;-50
2023/06/19 05:26:00;;;;;;;;;;;17.40;81.30;;;;;;5005870;28;88800;-52
2023/06/19 05:28:25;;;;;;;;;;;17.40;81.70;;;;;;5012333;28;87180;-53
2023/06/19 05:30:51;;;;;;;;;;;17.40;81.10;;;;;;5013230;28;87536;-53
2023/06/19 05:33:17;;;;;;;;;;;17.40;81.10;;;;;;5009358;28;88281;-54
2023/06/19 05:35:43;;;;;;;;;;;17.40;80.90;;;;;;5012297;28;87098;-52
2023/06/19 05:38:09;;;;;;;;;;;17.40;81.10;;;;;;5012830;28;89135;-48
2023/06/19 05:40:34;;;;;;;;;;;17.40;81.30;;;;;;5012432;28;89539;-52
2023/06/19 05:43:00;;;;;;;;;;;17.40;81.40;;;;;;5012384;28;88699;-49
2023/06/19 05:45:26;;;;;;;;;;;17.40;81.20;;;;;;5012241;28;88500;-46
2023/06/19 05:47:51;;;;;;;;;;;17.40;81.40;;;;;;5010596;28;87258;-49
2023/06/19 05:50:17;;;;;;;;;;;17.40;81.50;;;;;;5010341;28;88067;-49
2023/06/19 05:52:43;;;;;;;;;;;17.40;81.60;;;;;;5010812;28;88059;-50
2023/06/19 05:55:09;;;;;;;;;;;17.40;81.60;;;;;;5012971;28;87200;-48
2023/06/19 05:57:34;;;;;;;;;;;17.40;81.50;;;;;;5011009;28;88127;-48
2023/06/19 06:00:00;;;;;;;;;;;17.40;81.50;;;;;;5010567;28;87646;-51
2023/06/19 06:02:26;;;;;;;;;;;17.40;81.80;;;;;;5012935;28;87132;-47
2023/06/19 06:04:51;;;;;;;;;;;17.40;81.90;;;;;;5011577;28;88024;-50
2023/06/19 06:07:17;;;;;;;;;;;17.40;81.80;;;;;;5012253;28;86914;-54
2023/06/19 06:09:43;;;;;;;;;;;17.40;81.90;;;;;;5009856;28;88072;-49
2023/06/19 06:12:08;;;;;;;;;;;17.40;81.90;;;;;;5011961;28;88187;-51
2023/06/19 06:14:34;;;;;;;;;;;17.40;82.10;;;;;;5010878;28;88098;-46
2023/06/19 06:16:59;;;;;;;;;;;17.50;82.20;;;;;;5010102;28;88548;-50
2023/06/19 06:19:25;;;;;;;;;;;17.40;82.30;;;;;;5010825;28;88074;-49
2023/06/19 06:21:51;;;;;;;;;;;17.50;82.20;;;;;;5011098;28;87232;-47
2023/06/19 06:24:16;;;;;;;;;;;17.50;82.30;;;;;;5012694;28;87564;-47
2023/06/19 06:26:42;;;;;;;;;;;17.50;82.30;;;;;;5015548;28;87267;-47
2023/06/19 06:29:08;;;;;;;;;;;17.50;82.10;;;;;;5015288;28;87313;-49
2023/06/19 06:31:33;;;;;;;;;;;17.50;82.00;;;;;;5015888;28;86458;-49
2023/06/19 06:33:59;;;;;;;;;;;17.50;81.90;;;;;;5012523;28;87282;-49
2023/06/19 06:36:25;;;;;;;;;;;17.50;82.20;;;;;;5015044;28;87748;-49
2023/06/19 06:38:50;;;;;;;;;;;17.50;82.20;;;;;;5013976;28;90130;-51
2023/06/19 06:41:15;;;;;;;;;;;17.50;82.10;;;;;;5012809;28;87291;-49
2023/06/19 06:43:44;;;;;;;;;;;17.50;82.10;;;;;;5015388;28;87097;-51
2023/06/19 06:46:10;;;;;;;;;;;17.50;82.40;;;;;;5017773;28;87868;-49
2023/06/19 06:48:36;;;;;;;;;;;17.50;82.30;;;;;;5012289;28;87347;-48
2023/06/19 06:51:01;;;;;;;;;;;17.60;83.00;;;;;;5010730;28;88217;-49
2023/06/19 06:53:28;;;;;;;;;;;17.60;82.00;;;;;;5013527;28;87214;-50
2023/06/19 06:55:53;;;;;;;;;;;17.60;82.10;;;;;;5016117;28;87376;-50
2023/06/19 06:58:19;;;;;;;;;;;17.60;82.30;;;;;;5013730;28;88317;-48
2023/06/19 07:00:45;;;;;;;;;;;17.60;82.20;;;;;;5013831;28;87137;-48
2023/06/19 07:03:10;;;;;;;;;;;17.60;82.20;;;;;;5015148;28;88032;-51
2023/06/19 07:05:36;;;;;;;;;;;17.60;82.20;;;;;;5014098;28;88147;-52
2023/06/19 07:08:02;;;;;;;;;;;17.60;82.40;;;;;;5014912;28;87201;-47
2023/06/19 07:10:27;;;;;;;;;;;17.60;82.40;;;;;;5012530;28;87693;-52
2023/06/19 07:12:53;;;;;;;;;;;17.60;82.50;;;;;;5014992;28;87059;-48
2023/06/19 07:15:18;;;;;;;;;;;17.60;82.50;;;;;;5014554;28;87550;-46
2023/06/19 07:17:45;;;;;;;;;;;17.60;82.40;;;;;;5012628;28;89934;-49
2023/06/19 07:20:10;;;;;;;;;;;17.60;82.60;;;;;;5013395;28;86535;-46
2023/06/19 07:22:36;;;;;;;;;;;17.60;82.40;;;;;;5013957;28;87151;-47
2023/06/19 07:25:03;;;;;;;;;;;17.70;82.40;;;;;;5015023;28;87939;-47
2023/06/19 07:27:29;;;;;;;;;;;17.60;82.20;;;;;;5015196;28;88083;-49
2023/06/19 07:29:55;;;;;;;;;;;17.70;82.30;;;;;;5013512;28;88062;-50
2023/06/19 07:32:20;;;;;;;;;;;17.70;82.50;;;;;;5015066;28;86958;-50
2023/06/19 07:34:46;;;;;;;;;;;17.70;82.50;;;;;;5011991;28;88913;-49
2023/06/19 07:37:17;;;;;;;;;;;17.70;82.20;;;;;;5013445;28;87263;-49
2023/06/19 07:39:49;;;;;;;;;;;17.70;82.20;;;;;;5011883;28;86981;-47
2023/06/19 07:42:15;;;;;;;;;;;17.80;82.20;;;;;;5013579;28;87607;-47
2023/06/19 07:44:41;;;;;;;;;;;17.80;82.20;;;;;;5015357;28;87348;-50
2023/06/19 07:47:07;;;;;;;;;;;17.70;82.20;;;;;;5012621;28;87166;-49
2023/06/19 07:49:34;;;;;;;;;;;17.70;82.30;;;;;;5015963;28;87913;-50
2023/06/19 07:51:59;;;;;;;;;;;17.70;82.40;;;;;;5011265;28;88126;-49
2023/06/19 07:54:25;;;;;;;;;;;17.80;82.40;;;;;;5014419;28;87341;-48
2023/06/19 07:56:50;;;;;;;;;;;17.80;82.30;;;;;;5012919;28;89361;-49
2023/06/19 07:59:16;;;;;;;;;;;17.80;82.30;;;;;;5014728;28;87255;-53
2023/06/19 08:01:42;;;;;;;;;;;17.80;82.20;;;;;;5011969;28;88996;-50
2023/06/19 08:04:08;;;;;;;;;;;17.80;82.50;;;;;;5012853;28;88056;-50
2023/06/19 08:06:33;;;;;;;;;;;17.80;82.60;;;;;;5010658;28;87120;-48
2023/06/19 08:08:59;;;;;;;;;;;17.80;82.30;;;;;;5015091;28;88347;-49
2023/06/19 08:11:24;;;;;;;;;;;17.80;82.20;;;;;;5015012;28;88091;-52
2023/06/19 08:13:50;;;;;;;;;;;17.90;82.50;;;;;;5012161;28;87403;-49
2023/06/19 08:16:15;;;;;;;;;;;17.90;82.10;;;;;;5013563;28;88106;-48
2023/06/19 08:18:41;;;;;;;;;;;17.90;82.10;;;;;;5012597;28;87148;-51
2023/06/19 08:21:06;;;;;;;;;;;17.90;82.30;;;;;;5010779;28;88800;-48
2023/06/19 08:23:32;;;;;;;;;;;17.90;82.30;;;;;;5011289;28;87168;-48
2023/06/19 08:25:57;;;;;;;;;;;17.90;82.30;;;;;;5013369;28;87228;-50
2023/06/19 08:28:23;;;;;;;;;;;17.90;82.30;;;;;;5013616;28;87565;-51
2023/06/19 08:30:49;;;;;;;;;;;17.90;82.20;;;;;;5011133;28;89899;-50
2023/06/19 08:33:14;;;;;;;;;;;18.00;82.20;;;;;;5017034;28;86502;-50
2023/06/19 08:35:40;;;;;;;;;;;18.00;82.40;;;;;;5009272;28;87316;-50
2023/06/19 08:38:06;;;;;;;;;;;18.00;82.20;;;;;;5014297;28;87183;-52
2023/06/19 08:40:32;;;;;;;;;;;18.00;82.30;;;;;;5010468;28;88078;-52
2023/06/19 08:42:58;;;;;;;;;;;18.00;82.40;;;;;;5012041;28;88143;-49
2023/06/19 08:45:25;;;;;;;;;;;18.00;82.20;;;;;;5013963;28;87153;-53
2023/06/19 08:47:57;;;;;;;;;;;18.00;82.40;;;;;;5011203;28;87110;-49
2023/06/19 08:50:22;;;;;;;;;;;18.00;82.40;;;;;;5010573;28;87985;-52
2023/06/19 08:52:48;;;;;;;;;;;18.00;82.40;;;;;;5010424;28;87161;-48
2023/06/19 08:55:13;;;;;;;;;;;18.10;82.30;;;;;;5015180;28;88313;-52
2023/06/19 08:57:39;;;;;;;;;;;18.10;82.00;;;;;;5013825;28;86520;-53
2023/06/19 09:00:07;;;;;;;;;;;18.10;81.70;;;;;;5011170;28;87434;-47
2023/06/19 09:02:40;;;;;;;;;;;18.10;81.50;;;;;;5011994;28;89360;-51
2023/06/19 09:05:12;;;;;;;;;;;18.10;81.60;;;;;;5009977;28;88898;-49
2023/06/19 09:07:38;;;;;;;;;;;18.20;81.60;;;;;;5011606;28;89764;-52
2023/06/19 09:10:17;;;;;;;;;;;18.10;82.00;;;;;;5013119;28;89102;-52
2023/06/19 09:12:44;;;;;;;;;;;18.10;81.40;;;;;;5013014;28;87111;-51
2023/06/19 09:15:13;;;;;;;;;;;18.10;81.50;;;;;;5011991;28;88690;-46
2023/06/19 09:17:38;;;;;;;;;;;18.10;81.50;;;;;;5010204;28;87138;-48
2023/06/19 09:20:05;;;;;;;;;;;18.10;81.60;;;;;;5009687;28;87633;-52
2023/06/19 09:22:31;;;;;;;;;;;18.20;81.20;;;;;;5013160;28;88672;-46
2023/06/19 09:25:00;;;;;;;;;;;18.20;81.60;;;;;;5012394;28;87112;-49
2023/06/19 09:27:31;;;;;;;;;;;18.20;81.30;;;;;;5010852;28;87813;-49
2023/06/19 09:29:56;;;;;;;;;;;18.20;81.20;;;;;;5011388;28;88973;-48
2023/06/19 09:32:23;;;;;;;;;;;18.20;81.30;;;;;;5013041;28;87101;-48
2023/06/19 09:34:50;;;;;;;;;;;18.20;81.10;;;;;;5007012;28;87314;-48
2023/06/19 09:37:21;;;;;;;;;;;18.20;81.00;;;;;;5013408;28;88423;-51
2023/06/19 09:39:49;;;;;;;;;;;18.30;81.10;;;;;;5010210;28;87787;-51
2023/06/19 09:42:16;;;;;;;;;;;18.30;81.10;;;;;;5012088;28;88383;-49
2023/06/19 09:44:42;;;;;;;;;;;18.30;81.20;;;;;;5012739;28;87148;-46
2023/06/19 09:47:22;;;;;;;;;;;18.30;81.10;;;;;;5010999;28;87434;-49
2023/06/19 09:49:49;;;;;;;;;;;18.30;81.30;;;;;;5009813;28;89514;-50
2023/06/19 09:52:15;;;;;;;;;;;18.40;81.10;;;;;;5011282;28;88006;-47
2023/06/19 09:54:41;;;;;;;;;;;18.30;80.90;;;;;;5010795;28;87959;-47
2023/06/19 09:57:07;;;;;;;;;;;18.40;80.90;;;;;;5012362;28;88326;-50
2023/06/19 09:59:32;;;;;;;;;;;18.40;80.90;;;;;;5016251;28;87602;-49
2023/06/19 10:01:58;;;;;;;;;;;18.40;80.80;;;;;;5014669;28;88007;-48
2023/06/19 10:04:24;;;;;;;;;;;18.40;80.70;;;;;;5016628;28;87156;-47
2023/06/19 10:06:49;;;;;;;;;;;18.40;80.70;;;;;;5011661;28;87338;-48
2023/06/19 10:09:18;;;;;;;;;;;18.50;80.70;;;;;;5014815;28;89409;-47
2023/06/19 10:11:46;;;;;;;;;;;18.50;80.90;;;;;;5013498;28;87043;-48
2023/06/19 10:14:11;;;;;;;;;;;18.50;80.70;;;;;;5015358;28;87127;-47
2023/06/19 10:16:37;;;;;;;;;;;18.50;80.50;;;;;;5015052;28;89375;-48
2023/06/19 10:19:11;;;;;;;;;;;18.50;80.50;;;;;;5013179;28;88488;-46
2023/06/19 10:21:46;;;;;;;;;;;18.50;80.40;;;;;;5016066;28;88513;-48
2023/06/19 10:24:18;;;;;;;;;;;18.50;80.50;;;;;;5008688;28;87006;-47
2023/06/19 10:26:44;;;;;;;;;;;18.50;80.60;;;;;;5013449;28;88656;-51
2023/06/19 10:29:18;;;;;;;;;;;18.60;80.70;;;;;;5015619;28;87462;-49
2023/06/19 10:31:45;;;;;;;;;;;18.60;80.70;;;;;;5015518;28;87139;-47
2023/06/19 10:34:11;;;;;;;;;;;18.60;80.60;;;;;;5009623;28;88967;-48
2023/06/19 10:36:37;;;;;;;;;;;18.60;80.60;;;;;;5014227;28;88814;-48
2023/06/19 10:39:02;;;;;;;;;;;18.60;80.50;;;;;;5016058;28;87173;-46
2023/06/19 10:41:28;;;;;;;;;;;18.70;80.40;;;;;;5009565;28;87514;-47
2023/06/19 10:44:08;;;;;;;;;;;18.70;80.40;;;;;;5016624;28;88847;-48
2023/06/19 10:46:37;;;;;;;;;;;18.80;80.50;;;;;;5010406;28;89768;-47
2023/06/19 10:49:04;;;;;;;;;;;18.70;80.40;;;;;;5013060;28;87950;-49
2023/06/19 10:51:30;;;;;;;;;;;18.80;80.40;;;;;;5012574;28;87235;-46
2023/06/19 10:53:56;;;;;;;;;;;18.80;80.40;;;;;;5014170;28;87310;-50
2023/06/19 10:56:22;;;;;;;;;;;18.80;80.40;;;;;;5013079;28;87959;-47
2023/06/19 10:58:48;;;;;;;;;;;18.80;79.80;;;;;;5015700;28;87187;-46
2023/06/19 11:01:13;;;;;;;;;;;18.90;80.40;;;;;;5014666;28;87450;-50
2023/06/19 11:03:39;;;;;;;;;;;18.90;80.40;;;;;;5012982;28;87921;-49
2023/06/19 11:06:04;;;;;;;;;;;18.90;80.30;;;;;;5015798;28;87119;-48
2023/06/19 11:08:30;;;;;;;;;;;18.90;80.20;;;;;;5013732;28;88837;-49
2023/06/19 11:10:56;;;;;;;;;;;18.90;80.20;;;;;;5014252;28;87317;-50
2023/06/19 11:13:21;;;;;;;;;;;18.90;80.20;;;;;;5012363;28;87738;-50
2023/06/19 11:15:49;;;;;;;;;;;19.00;80.20;;;;;;5014301;28;88015;-49
2023/06/19 11:18:15;;;;;;;;;;;19.00;80.20;;;;;;5014805;28;87358;-46
2023/06/19 11:20:49;;;;;;;;;;;19.00;80.20;;;;;;5012435;28;87794;-50
2023/06/19 11:23:15;;;;;;;;;;;19.00;80.20;;;;;;5013234;28;89499;-51
2023/06/19 11:25:41;;;;;;;;;;;19.10;80.10;;;;;;5015454;28;86377;-49
2023/06/19 11:28:11;;;;;;;;;;;19.10;80.00;;;;;;5014048;28;88926;-51
2023/06/19 11:30:36;;;;;;;;;;;19.10;80.00;;;;;;5014808;28;87075;-50
2023/06/19 11:33:02;;;;;;;;;;;19.10;79.80;;;;;;5011573;28;88727;-48
2023/06/19 11:35:36;;;;;;;;;;;19.10;80.00;;;;;;5013225;28;88839;-50
2023/06/19 11:38:02;;;;;;;;;;;19.20;79.70;;;;;;5012548;28;87192;-50
2023/06/19 11:40:28;;;;;;;;;;;19.20;80.00;;;;;;5013788;28;87406;-46
2023/06/19 11:42:54;;;;;;;;;;;19.20;79.80;;;;;;5014001;28;90147;-46
2023/06/19 11:45:20;;;;;;;;;;;19.20;79.70;;;;;;5012359;28;87590;-49
2023/06/19 11:47:46;;;;;;;;;;;19.20;79.70;;;;;;5016463;28;87862;-49
2023/06/19 11:50:13;;;;;;;;;;;19.30;79.80;;;;;;5014535;28;86376;-47
2023/06/19 11:52:39;;;;;;;;;;;19.30;79.60;;;;;;5012454;28;87263;-51
2023/06/19 11:55:04;;;;;;;;;;;19.30;79.60;;;;;;5012546;28;88529;-49
2023/06/19 11:57:30;;;;;;;;;;;19.30;79.50;;;;;;5011965;28;88051;-49
2023/06/19 11:59:56;;;;;;;;;;;19.40;79.70;;;;;;5014595;28;89756;-50
2023/06/19 12:02:21;;;;;;;;;;;19.40;79.60;;;;;;5012449;28;88252;-46
2023/06/19 12:04:47;;;;;;;;;;;19.40;79.60;;;;;;5012877;28;87491;-48
2023/06/19 12:07:12;;;;;;;;;;;19.40;79.60;;;;;;5012685;28;87602;-48
2023/06/19 12:09:38;;;;;;;;;;;19.40;79.50;;;;;;5014732;28;88082;-51
2023/06/19 12:12:05;;;;;;;;;;;19.40;79.50;;;;;;5012697;28;88756;-49
2023/06/19 12:14:30;;;;;;;;;;;19.50;79.50;;;;;;5014539;28;86368;-49
2023/06/19 12:16:56;;;;;;;;;;;19.50;79.40;;;;;;5012405;28;87121;-50
2023/06/19 12:19:21;;;;;;;;;;;19.50;79.50;;;;;;5012882;28;87639;-50
2023/06/19 12:21:47;;;;;;;;;;;19.50;79.40;;;;;;5008360;28;90183;-47
2023/06/19 12:24:12;;;;;;;;;;;19.50;79.30;;;;;;5013653;28;87165;-47
2023/06/19 12:26:39;;;;;;;;;;;19.60;79.30;;;;;;5011111;28;88979;-51
2023/06/19 12:29:05;;;;;;;;;;;19.60;79.20;;;;;;5010976;28;88044;-49
2023/06/19 12:31:32;;;;;;;;;;;19.60;79.00;;;;;;5016629;28;87122;-50
2023/06/19 12:33:57;;;;;;;;;;;19.60;79.20;;;;;;5012798;28;88070;-50
2023/06/19 12:36:23;;;;;;;;;;;19.70;79.20;;;;;;5011530;28;87907;-47
2023/06/19 12:38:48;;;;;;;;;;;19.70;79.10;;;;;;5011533;28;87145;-51
2023/06/19 12:41:14;;;;;;;;;;;19.70;79.10;;;;;;5012034;28;88012;-50
2023/06/19 12:43:40;;;;;;;;;;;19.70;79.00;;;;;;5013957;28;86999;-55
2023/06/19 12:46:05;;;;;;;;;;;19.70;79.00;;;;;;5007035;28;88756;-48
2023/06/19 12:48:31;;;;;;;;;;;19.80;78.90;;;;;;5012578;28;87930;-53
2023/06/19 12:50:57;;;;;;;;;;;19.80;78.90;;;;;;5013723;28;87151;-52
2023/06/19 12:53:26;;;;;;;;;;;19.90;78.60;;;;;;5012335;28;87922;-53
2023/06/19 12:55:53;;;;;;;;;;;19.90;78.60;;;;;;5012589;28;87177;-48
2023/06/19 12:58:18;;;;;;;;;;;19.80;78.70;;;;;;5009724;28;89010;-52
2023/06/19 13:00:44;;;;;;;;;;;19.90;78.60;;;;;;5013166;28;88164;-53
2023/06/19 13:03:09;;;;;;;;;;;19.90;78.40;;;;;;5013244;28;86415;-52
2023/06/19 13:05:35;;;;;;;;;;;20.00;78.30;;;;;;5011285;28;86951;-52
2023/06/19 13:08:01;;;;;;;;;;;20.00;78.70;;;;;;5006701;28;87982;-51
2023/06/19 13:10:27;;;;;;;;;;;20.00;78.30;;;;;;5011564;28;88086;-52
2023/06/19 13:12:52;;;;;;;;;;;20.00;78.40;;;;;;5015597;28;88740;-49
2023/06/19 13:15:18;;;;;;;;;;;20.10;78.30;;;;;;5010425;28;87246;-48
2023/06/19 13:17:43;;;;;;;;;;;20.10;78.10;;;;;;5012729;28;87556;-49
2023/06/19 13:20:09;;;;;;;;;;;20.10;78.10;;;;;;5012881;28;88055;-49
2023/06/19 13:22:34;;;;;;;;;;;20.20;78.00;;;;;;5009899;28;87121;-48
2023/06/19 13:25:00;;;;;;;;;;;20.20;77.80;;;;;;5011708;28;87767;-48
2023/06/19 13:27:27;;;;;;;;;;;20.20;78.00;;;;;;5011807;28;87302;-46
2023/06/19 13:29:53;;;;;;;;;;;20.20;78.20;;;;;;5013540;28;87288;-50
2023/06/19 13:32:19;;;;;;;;;;;20.20;77.90;;;;;;5011687;28;87632;-47
2023/06/19 13:34:44;;;;;;;;;;;20.20;78.10;;;;;;5013073;28;89280;-49
2023/06/19 13:37:10;;;;;;;;;;;20.20;77.90;;;;;;5012012;28;87865;-47
2023/06/19 13:39:35;;;;;;;;;;;20.20;78.10;;;;;;5011655;28;88216;-47
2023/06/19 13:42:01;;;;;;;;;;;20.20;77.90;;;;;;5011571;28;86951;-50
2023/06/19 13:44:26;;;;;;;;;;;20.30;77.80;;;;;;5013293;28;87989;-51
2023/06/19 13:46:52;;;;;;;;;;;20.40;77.90;;;;;;5010625;28;88259;-47
2023/06/19 13:49:17;;;;;;;;;;;20.40;77.80;;;;;;5010759;28;87074;-53
2023/06/19 13:51:44;;;;;;;;;;;20.40;77.70;;;;;;5013244;28;87417;-52
2023/06/19 13:54:09;;;;;;;;;;;20.40;77.80;;;;;;5008812;28;88330;-47
2023/06/19 13:56:35;;;;;;;;;;;20.40;77.70;;;;;;5014367;28;87115;-50
2023/06/19 13:59:00;;;;;;;;;;;20.50;77.40;;;;;;5012122;28;88916;-51
2023/06/19 14:01:26;;;;;;;;;;;20.50;77.20;;;;;;5010379;28;87125;-46
2023/06/19 14:03:51;;;;;;;;;;;20.60;77.30;;;;;;5011880;28;87022;-50
2023/06/19 14:06:17;;;;;;;;;;;20.50;77.10;;;;;;5012402;28;88220;-49
2023/06/19 14:08:42;;;;;;;;;;;20.60;77.30;;;;;;5008598;28;87078;-49
2023/06/19 14:11:08;;;;;;;;;;;20.60;77.40;;;;;;5011371;28;87441;-47